Terminal Aerodrome Forecast
Issued by NWS

Home | Current Version | Previous Version | Text Only | Print | Product List | Glossary On
Versions: 1 2 3 4 5 6 7 8 9 10 11 12 13 14 15 16 17 18
000
FTUS41 KRNK 250520
TAFBCB
TAF
KBCB 250520Z 2506/2606 20007KT P6SM SCT040
     FM250800 20008KT P6SM SCT035
     FM251200 19007KT P6SM VCSH OVC030
      TEMPO 2513/2515 4SM -SHRA OVC015
     FM251700 26012KT P6SM BKN040
     FM252100 27014G27KT P6SM SCT045=

USA.gov is the U.S. government's official web portal to all federal, state and local government web resources and services.